Time;durP1;ratioP1;P1;durP2;ratioP2;P2;SDS_P1;SDS_P2;PMS_P1;PMS_P2;Temp;Humidity;BMP_temperature;BMP_pressure;BME280_temperature;BME280_humidity;BME280_pressure;Samples;Min_cycle;Max_cycle;Signal;HPM_P1;HPM_P2
2023/10/06 13:09:22;;;;;;;19.42;3.00;;;;;;;25.40;53.47;102147.84;5063646;27;20417;-51
2023/10/06 13:11:48;;;;;;;20.23;3.25;;;;;;;25.13;53.71;102151.91;5050974;28;20088;-46
2023/10/06 13:14:42;;;;;;;11.60;2.83;;;;;;;24.93;54.23;102143.66;5051744;27;20136;-55
2023/10/06 13:17:08;;;;;;;11.52;3.28;;;;;;;24.81;54.19;102150.13;5033776;28;20174;-50
2023/10/06 13:19:34;;;;;;;26.75;4.45;;;;;;;25.54;54.72;102139.34;5030140;28;20169;-43
2023/10/06 13:21:59;;;;;;;10.73;3.10;;;;;;;25.66;52.69;102135.53;5035381;28;20359;-45
2023/10/06 13:24:24;;;;;;;11.45;3.25;;;;;;;25.28;55.20;102136.19;5032417;28;20024;-65
2023/10/06 13:28:53;;;;;;;11.27;2.80;;;;;;;25.42;53.12;102140.44;5028379;28;20280;-57
2023/10/06 13:31:20;;;;;;;9.38;2.90;;;;;;;25.23;53.51;102139.31;5016707;28;20650;-57
2023/10/06 13:33:45;;;;;;;8.70;3.00;;;;;;;25.19;53.77;102133.28;5019536;28;20712;-57
2023/10/06 13:36:11;;;;;;;7.75;3.35;;;;;;;25.17;53.71;102142.56;5019012;28;20037;-57
2023/10/06 13:38:37;;;;;;;8.23;3.13;;;;;;;25.21;53.88;102138.56;5020062;28;20036;-58
2023/10/06 13:41:04;;;;;;;7.57;3.00;;;;;;;25.23;53.24;102143.84;5021529;28;20294;-58
2023/10/06 13:43:30;;;;;;;6.65;2.60;;;;;;;25.27;53.29;102139.88;5019636;28;20037;-48
2023/10/06 13:45:57;;;;;;;10.80;3.05;;;;;;;-146.35;100.00;61140.38;5022200;28;20037;-56
2023/10/06 13:48:26;;;;;;;9.60;3.10;;;;;;;-146.35;100.00;61140.38;5020953;28;20052;-57
2023/10/06 13:50:58;;;;;;;11.07;3.20;;;;;;;-146.35;100.00;61140.38;5019244;28;20105;-47
2023/10/06 13:53:26;;;;;;;12.18;3.25;;;;;;;-146.35;100.00;61140.38;5018677;28;20037;-46
2023/10/06 13:55:54;;;;;;;8.25;3.33;;;;;;;-146.35;100.00;61140.38;5018121;28;20762;-45
2023/10/06 13:58:23;;;;;;;8.38;3.25;;;;;;;-146.35;100.00;61140.38;5020454;28;20033;-49
2023/10/06 14:00:49;;;;;;;13.23;3.95;;;;;;;25.27;53.29;102139.88;5019582;28;20037;-56
2023/10/06 14:03:14;;;;;;;15.55;4.43;;;;;;;25.48;52.59;102131.75;5016253;28;20043;-58
2023/10/06 14:05:49;;;;;;;20.35;5.25;;;;;;;-146.35;100.00;61140.38;5019310;28;20040;-57
2023/10/06 14:08:17;;;;;;;17.75;5.38;;;;;;;25.48;52.59;102131.75;5018675;28;20119;-56
2023/10/06 14:10:43;;;;;;;23.70;6.07;;;;;;;25.47;52.75;102120.03;5018666;28;20135;-57
2023/10/06 14:13:16;;;;;;;21.98;5.75;;;;;;;25.44;52.93;102131.16;5018585;28;20040;-56
2023/10/06 14:15:54;;;;;;;20.98;6.43;;;;;;;25.40;53.10;102115.28;5018998;28;20558;-56
2023/10/06 14:18:24;;;;;;;19.92;6.07;;;;;;;25.35;53.57;102119.28;5018412;28;20463;-59
2023/10/06 14:20:57;;;;;;;20.20;6.07;;;;;;;25.39;53.10;102111.75;5018788;28;20432;-57
2023/10/06 14:23:24;;;;;;;19.88;6.45;;;;;;;25.38;53.37;102107.31;5017905;28;20524;-51
2023/10/06 14:25:52;;;;;;;21.52;7.68;;;;;;;25.38;53.45;102109.16;5018266;28;20041;-51
2023/10/06 14:28:18;;;;;;;21.27;7.03;;;;;;;25.40;52.96;102101.72;5018365;28;21927;-50
2023/10/06 14:30:44;;;;;;;22.80;6.38;;;;;;;25.39;53.01;102105.47;5018716;28;20049;-48
2023/10/06 14:46:51;;;;;;;17.35;6.00;;;;;;;25.49;53.43;102109.91;5003784;28;20318;-46
2023/10/06 14:49:28;;;;;;;16.90;5.28;;;;;;;25.45;52.80;102103.06;5003867;28;20041;-48
2023/10/06 14:51:58;;;;;;;18.30;5.40;;;;;;;25.44;53.38;102114.91;5018553;28;20115;-51
2023/10/06 14:54:31;;;;;;;15.88;5.65;;;;;;;25.41;53.27;102104.34;5004603;28;20251;-48
2023/10/06 14:56:58;;;;;;;16.55;5.60;;;;;;;25.43;53.28;102117.75;5003934;28;20025;-48
2023/10/06 14:59:23;;;;;;;14.25;5.28;;;;;;;25.44;53.31;102116.75;5003369;28;20043;-49
2023/10/06 15:01:51;;;;;;;20.17;5.15;;;;;;;25.43;53.19;102115.03;5002729;28;20617;-48
2023/10/06 15:04:19;;;;;;;22.83;5.30;;;;;;;25.59;52.47;102109.09;5009008;28;20505;-52
2023/10/06 15:06:46;;;;;;;17.42;4.88;;;;;;;25.40;53.60;102110.75;5011182;28;20037;-54
2023/10/06 15:09:29;;;;;;;16.05;4.82;;;;;;;25.28;54.64;102109.94;5007326;28;20736;-61
2023/10/06 15:11:54;;;;;;;17.55;4.60;;;;;;;25.14;54.62;102126.53;5006530;28;20144;-61
2023/10/06 15:14:26;;;;;;;14.40;4.88;;;;;;;25.06;54.54;102110.94;5004465;28;20397;-51
2023/10/06 15:16:55;;;;;;;14.70;4.47;;;;;;;25.02;54.26;102113.06;5003725;28;20086;-55
2023/10/06 15:19:24;;;;;;;14.18;4.55;;;;;;;24.97;54.68;102114.47;5005332;28;20552;-53
2023/10/06 15:21:51;;;;;;;13.02;4.50;;;;;;;24.95;54.42;102111.00;5004768;28;20095;-52
2023/10/06 15:24:17;;;;;;;15.45;4.20;;;;;;;24.90;54.82;102114.13;5004087;28;20497;-61
2023/10/06 15:26:44;;;;;;;11.77;4.05;;;;;;;24.86;54.55;102110.84;5018298;28;20071;-61
2023/10/06 15:29:12;;;;;;;10.75;4.00;;;;;;;24.82;54.51;102120.22;5004587;28;20532;-60
2023/10/06 15:31:37;;;;;;;10.63;4.25;;;;;;;24.81;54.45;102123.91;5004448;28;20067;-52
2023/10/06 15:34:04;;;;;;;11.45;4.35;;;;;;;24.77;54.39;102113.47;5035461;28;20448;-61
2023/10/06 15:36:30;;;;;;;11.40;4.13;;;;;;;24.75;54.56;102116.31;5004713;28;20120;-61
2023/10/06 15:39:00;;;;;;;11.32;4.20;;;;;;;24.76;54.32;102117.16;5004233;28;20063;-50
2023/10/06 15:41:30;;;;;;;11.63;4.10;;;;;;;24.75;54.25;102124.44;5003311;28;20040;-51
2023/10/06 15:43:56;;;;;;;9.10;4.00;;;;;;;24.73;54.11;102118.28;5029679;28;20044;-61
2023/10/06 15:46:22;;;;;;;10.68;3.90;;;;;;;24.70;54.71;102124.81;5003349;28;20064;-62
2023/10/06 15:48:47;;;;;;;8.77;3.72;;;;;;;24.68;54.82;102121.41;5002150;28;20041;-61
2023/10/06 15:51:14;;;;;;;7.55;3.38;;;;;;;24.66;55.06;102123.34;5002828;28;20336;-62
2023/10/06 15:53:43;;;;;;;8.82;3.88;;;;;;;24.65;55.00;102116.22;5001868;28;20033;-53
2023/10/06 15:56:14;;;;;;;9.32;3.50;;;;;;;24.65;54.98;102104.53;5003752;28;20094;-52
2023/10/06 15:58:41;;;;;;;8.25;3.55;;;;;;;24.65;54.63;102109.97;5002333;28;20029;-52
2023/10/06 16:01:08;;;;;;;7.50;3.10;;;;;;;24.64;54.73;102108.22;5002628;28;20119;-60
2023/10/06 16:03:38;;;;;;;9.77;3.45;;;;;;;24.62;54.83;102112.91;5003431;28;20045;-50
2023/10/06 16:06:05;;;;;;;10.57;3.72;;;;;;;24.55;54.70;102112.53;5003016;28;20028;-52
2023/10/06 16:08:30;;;;;;;8.65;3.30;;;;;;;24.49;54.55;102113.94;5000978;28;20189;-51
2023/10/06 16:11:07;;;;;;;8.45;3.22;;;;;;;24.51;54.68;102111.09;5002146;28;20040;-53
2023/10/06 16:13:34;;;;;;;7.32;3.40;;;;;;;24.44;54.95;102109.88;5000809;28;20248;-62
2023/10/06 16:15:59;;;;;;;6.72;3.25;;;;;;;24.45;54.73;102104.34;5003383;28;20041;-50
2023/10/06 16:18:29;;;;;;;7.53;2.92;;;;;;;24.44;54.63;102102.63;5003211;28;20698;-50
2023/10/06 16:20:55;;;;;;;9.90;3.55;;;;;;;24.42;55.25;102101.91;5004321;28;20555;-51
2023/10/06 16:23:20;;;;;;;9.10;3.53;;;;;;;24.40;55.22;102103.88;5002292;28;20091;-51
2023/10/06 16:25:46;;;;;;;11.13;3.03;;;;;;;24.39;54.69;102099.44;5004149;28;20139;-50
2023/10/06 16:28:11;;;;;;;7.70;3.30;;;;;;;24.34;54.75;102105.25;5002940;28;21073;-49
2023/10/06 16:30:40;;;;;;;10.25;3.28;;;;;;;24.33;55.25;102095.41;5002717;28;20029;-52
2023/10/06 16:33:10;;;;;;;10.20;3.08;;;;;;;24.33;54.56;102089.13;5003404;28;20393;-53
2023/10/06 16:35:40;;;;;;;8.40;3.00;;;;;;;24.31;54.98;102102.81;5008374;28;20033;-51
2023/10/06 16:38:07;;;;;;;21.27;4.13;;;;;;;24.36;54.93;102114.09;5001975;28;20040;-55
2023/10/06 16:40:33;;;;;;;16.60;3.50;;;;;;;24.41;55.04;102116.41;5001923;28;20723;-55
2023/10/06 16:43:01;;;;;;;7.18;3.20;;;;;;;24.48;54.70;102114.91;5003680;28;20041;-66
2023/10/06 16:45:27;;;;;;;8.40;3.10;;;;;;;24.50;54.24;102115.66;5000624;28;20029;-60
2023/10/06 16:47:54;;;;;;;8.75;3.13;;;;;;;24.57;54.16;102112.44;5004161;28;20460;-52
2023/10/06 16:50:23;;;;;;;18.73;3.95;;;;;;;24.67;53.70;102119.66;5001587;28;20399;-47
2023/10/06 16:52:56;;;;;;;7.93;3.35;;;;;;;24.70;53.77;102113.97;5002379;28;20662;-49
2023/10/06 16:55:22;;;;;;;8.85;3.17;;;;;;;24.73;54.06;102112.00;5002601;28;20040;-45
2023/10/06 16:57:47;;;;;;;7.53;3.00;;;;;;;24.72;53.45;102110.28;5002343;28;20029;-56
2023/10/06 17:00:14;;;;;;;11.20;3.20;;;;;;;24.69;54.08;102123.13;5002136;28;20532;-47
2023/10/06 17:02:40;;;;;;;11.95;3.38;;;;;;;-146.35;100.00;61140.38;5033750;28;20995;-46
2023/10/06 17:05:05;;;;;;;8.95;3.05;;;;;;;24.69;54.08;102123.13;5032873;28;20351;-50
2023/10/06 17:07:31;;;;;;;35.92;4.75;;;;;;;24.48;54.55;102114.06;5003164;28;20041;-45
2023/10/06 17:09:56;;;;;;;17.58;3.97;;;;;;;24.42;54.13;102117.28;5002500;28;20033;-46
2023/10/06 17:12:22;;;;;;;12.40;3.60;;;;;;;24.34;54.27;102126.91;5002684;28;20047;-45
2023/10/06 17:14:54;;;;;;;10.38;3.40;;;;;;;24.26;54.26;102117.69;5002946;28;20104;-45
2023/10/06 17:17:22;;;;;;;12.02;3.60;;;;;;;24.21;55.17;102121.66;5003457;28;20021;-45
2023/10/06 17:19:49;;;;;;;12.40;3.40;;;;;;;24.18;54.63;102118.34;5002997;28;20040;-44
2023/10/06 17:22:16;;;;;;;12.30;3.55;;;;;;;24.11;55.17;102117.16;5002858;28;20048;-46
2023/10/06 17:24:42;;;;;;;10.57;3.53;;;;;;;24.09;55.06;102127.22;5033269;28;20056;-48
2023/10/06 17:27:07;;;;;;;12.18;3.30;;;;;;;24.03;55.49;102125.88;5002051;28;20413;-44
2023/10/06 17:29:33;;;;;;;14.10;3.45;;;;;;;24.01;54.84;102117.03;5002517;28;20163;-46
2023/10/06 17:32:01;;;;;;;11.57;3.50;;;;;;;24.03;55.47;102125.88;5001797;28;20115;-47
2023/10/06 17:34:26;;;;;;;13.18;3.33;;;;;;;23.94;55.29;102118.50;5002759;28;20088;-49
2023/10/06 17:36:52;;;;;;;8.77;3.17;;;;;;;23.91;55.29;102114.22;5002611;28;20486;-47
2023/10/06 17:39:17;;;;;;;9.35;3.67;;;;;;;23.87;55.85;102123.53;4983698;28;20026;-45
2023/10/06 17:41:43;;;;;;;11.30;3.13;;;;;;;23.83;55.34;102125.63;5017861;28;20039;-45
2023/10/06 17:44:09;;;;;;;13.23;3.50;;;;;;;23.82;55.51;102120.34;5001325;28;20037;-47
2023/10/06 17:46:35;;;;;;;7.55;3.10;;;;;;;23.78;55.42;102116.16;5002460;28;20033;-51
2023/10/06 17:49:01;;;;;;;10.25;3.30;;;;;;;23.79;55.35;102120.59;5002687;28;20441;-45
2023/10/06 17:51:27;;;;;;;11.45;3.47;;;;;;;23.74;55.48;102107.44;5002806;28;20068;-48
2023/10/06 17:53:52;;;;;;;7.70;3.08;;;;;;;23.75;55.83;102109.16;5001347;28;21155;-48
2023/10/06 17:56:17;;;;;;;10.00;3.22;;;;;;;23.73;55.88;102106.59;5002689;28;20037;-44
2023/10/06 17:58:45;;;;;;;10.98;3.35;;;;;;;23.68;55.49;102097.13;5002098;28;20106;-46
2023/10/06 18:01:11;;;;;;;11.77;3.42;;;;;;;23.76;55.43;102100.06;5001712;28;20055;-47
2023/10/06 18:03:36;;;;;;;12.68;3.22;;;;;;;23.71;55.72;102096.88;5001749;28;20071;-48
2023/10/06 18:06:02;;;;;;;9.38;3.47;;;;;;;23.69;55.99;102082.63;5002353;28;20208;-48
2023/10/06 18:08:28;;;;;;;9.52;3.35;;;;;;;23.67;56.15;102093.56;5002872;28;20038;-44
2023/10/06 18:10:54;;;;;;;9.10;3.40;;;;;;;23.64;55.56;102091.09;5002532;28;20032;-46
2023/10/06 18:13:21;;;;;;;9.25;3.35;;;;;;;23.65;55.94;102094.69;5002924;28;20029;-45
2023/10/06 18:15:47;;;;;;;7.38;2.90;;;;;;;23.62;55.51;102092.19;5004063;28;20040;-48
2023/10/06 18:18:12;;;;;;;9.30;3.05;;;;;;;23.61;55.58;102104.88;5004835;28;20667;-50
2023/10/06 18:20:39;;;;;;;11.15;3.08;;;;;;;23.59;55.69;102109.53;5005278;28;21437;-50
2023/10/06 18:23:05;;;;;;;8.63;3.10;;;;;;;23.61;55.53;102106.69;5006009;28;20112;-52
2023/10/06 18:25:35;;;;;;;9.20;2.67;;;;;;;23.56;55.68;102112.50;5005507;28;20028;-51
2023/10/06 18:28:03;;;;;;;11.90;3.28;;;;;;;23.50;55.78;102107.56;5005465;28;20442;-47
2023/10/06 18:30:28;;;;;;;7.75;3.00;;;;;;;23.52;55.68;102097.50;5004779;28;20257;-51
2023/10/06 18:32:54;;;;;;;9.80;2.72;;;;;;;23.52;55.77;102098.34;5005766;28;20048;-49
2023/10/06 18:35:20;;;;;;;10.02;3.00;;;;;;;23.50;55.62;102096.75;5006252;28;20033;-49
2023/10/06 18:37:45;;;;;;;8.82;2.97;;;;;;;23.49;55.45;102097.75;5005780;28;20029;-50
2023/10/06 18:40:14;;;;;;;10.38;3.33;;;;;;;23.49;55.86;102100.44;5003608;28;20084;-47
2023/10/06 18:42:41;;;;;;;8.77;2.67;;;;;;;23.47;55.62;102095.16;5005030;28;20037;-48
2023/10/06 18:45:11;;;;;;;7.15;2.58;;;;;;;23.48;55.67;102094.19;5000854;28;20021;-52
2023/10/06 18:47:37;;;;;;;7.63;2.70;;;;;;;23.46;55.68;102098.00;5035552;28;20213;-48
2023/10/06 18:50:09;;;;;;;8.85;2.83;;;;;;;23.45;55.57;102098.97;5005627;28;20448;-49
2023/10/06 18:52:35;;;;;;;8.52;2.70;;;;;;;23.43;55.38;102091.00;5010270;28;20041;-49
2023/10/06 18:55:03;;;;;;;8.80;2.70;;;;;;;23.42;55.91;102099.22;5004668;28;20037;-49
2023/10/06 18:57:29;;;;;;;8.82;2.72;;;;;;;23.40;55.38;102093.91;5004037;28;20063;-48
2023/10/06 18:59:54;;;;;;;10.32;2.78;;;;;;;23.38;55.64;102098.59;5004120;28;20501;-49
2023/10/06 19:02:20;;;;;;;6.82;2.50;;;;;;;23.34;55.72;102098.00;4998770;28;20065;-45
2023/10/06 19:04:45;;;;;;;10.23;3.15;;;;;;;23.31;55.83;102095.53;5004307;28;20028;-47
2023/10/06 19:07:12;;;;;;;7.90;2.67;;;;;;;23.31;55.73;102102.78;5035615;28;20363;-49
2023/10/06 19:09:38;;;;;;;9.23;2.78;;;;;;;23.31;55.61;102108.19;5004988;28;20049;-48
2023/10/06 19:12:04;;;;;;;7.82;2.67;;;;;;;23.27;55.81;102109.41;5004667;28;20094;-50
2023/10/06 19:14:30;;;;;;;8.85;2.80;;;;;;;23.28;55.98;102105.72;5004208;28;20580;-49
2023/10/06 19:16:58;;;;;;;9.52;2.65;;;;;;;23.24;55.83;102116.75;5003168;28;20484;-49
2023/10/06 19:19:27;;;;;;;8.20;2.53;;;;;;;23.22;55.93;102107.94;5002725;28;20065;-48
2023/10/06 19:21:52;;;;;;;8.45;2.85;;;;;;;23.22;56.18;102096.25;5004111;28;20051;-48
2023/10/06 19:24:19;;;;;;;10.70;2.80;;;;;;;23.20;55.88;102101.78;5004116;28;20071;-51
2023/10/06 19:26:45;;;;;;;9.05;2.75;;;;;;;23.21;55.86;102099.94;5001543;28;20490;-49
2023/10/06 19:29:12;;;;;;;8.68;2.70;;;;;;;23.16;55.99;102096.72;5003855;28;20041;-50
2023/10/06 19:31:40;;;;;;;7.43;2.60;;;;;;;23.14;56.15;102104.94;5003990;28;20421;-50
2023/10/06 19:34:06;;;;;;;9.95;2.80;;;;;;;23.14;56.42;102095.97;5019213;28;20069;-50
2023/10/06 19:36:34;;;;;;;9.82;2.78;;;;;;;23.15;56.45;102098.59;5004106;28;20386;-51
2023/10/06 19:39:00;;;;;;;8.38;2.50;;;;;;;23.13;56.16;102091.53;5001614;28;20079;-48
2023/10/06 19:41:26;;;;;;;7.25;2.70;;;;;;;23.12;56.27;102089.81;5003888;28;20119;-49
2023/10/06 19:43:51;;;;;;;8.38;2.70;;;;;;;23.10;56.50;102102.59;5004147;28;20039;-47
2023/10/06 19:46:17;;;;;;;9.48;2.70;;;;;;;23.07;56.25;102092.91;5003194;28;20361;-49
2023/10/06 19:48:45;;;;;;;8.68;2.67;;;;;;;23.06;56.14;102088.47;5003294;28;20112;-52
2023/10/06 19:51:12;;;;;;;7.65;2.85;;;;;;;23.07;56.14;102098.31;5001371;28;20042;-49
2023/10/06 19:53:38;;;;;;;9.23;2.88;;;;;;;23.03;56.42;102102.19;4999897;28;20810;-50
2023/10/06 19:56:04;;;;;;;8.75;2.85;;;;;;;23.01;56.32;102096.94;5003791;28;20045;-50
2023/10/06 19:58:31;;;;;;;8.57;3.10;;;;;;;23.02;56.33;102098.66;5003198;28;20045;-49
2023/10/06 20:00:57;;;;;;;10.02;3.10;;;;;;;23.03;56.29;102092.28;5001383;28;20433;-49
2023/10/06 20:03:23;;;;;;;9.23;2.60;;;;;;;23.01;56.46;102096.94;5003948;28;20043;-49
2023/10/06 20:05:48;;;;;;;8.25;2.80;;;;;;;23.02;56.17;102104.06;5035489;28;20065;-48
2023/10/06 20:08:14;;;;;;;7.28;2.40;;;;;;;23.01;56.27;102110.44;5002761;28;20055;-47
2023/10/06 20:10:39;;;;;;;7.60;2.40;;;;;;;22.98;56.61;102099.88;5003496;28;20567;-49
2023/10/06 20:13:07;;;;;;;6.32;2.50;;;;;;;23.00;56.17;102107.84;5004632;28;20151;-50
2023/10/06 20:15:34;;;;;;;6.78;2.53;;;;;;;22.99;56.10;102109.72;5003805;28;20481;-48
2023/10/06 20:18:00;;;;;;;10.15;3.28;;;;;;;22.97;56.24;102103.56;5003496;28;20476;-49
2023/10/06 20:20:29;;;;;;;7.38;3.13;;;;;;;22.98;56.00;102109.81;5007592;28;20022;-51
2023/10/06 20:22:56;;;;;;;8.27;2.45;;;;;;;22.96;56.04;102109.09;5002517;28;20122;-51
2023/10/06 20:25:22;;;;;;;7.55;2.53;;;;;;;22.97;56.12;102108.97;4997613;28;20040;-50
2023/10/06 20:27:48;;;;;;;7.18;2.60;;;;;;;22.93;56.41;102115.59;5002995;28;20045;-49
2023/10/06 20:30:19;;;;;;;8.02;2.50;;;;;;;22.92;56.46;102101.19;5001449;28;20033;-51
2023/10/06 20:32:50;;;;;;;8.15;2.55;;;;;;;22.90;56.44;102100.47;5002468;28;20502;-51
2023/10/06 20:35:16;;;;;;;7.50;2.65;;;;;;;22.89;56.34;102092.47;5019073;28;20041;-50
2023/10/06 20:37:43;;;;;;;7.78;2.88;;;;;;;22.90;56.65;102095.06;5001847;28;20135;-48
2023/10/06 20:40:24;;;;;;;9.85;2.92;;;;;;;22.87;56.32;102092.59;5002440;28;20397;-50
2023/10/06 20:43:02;;;;;;;;;;;;;;;22.88;56.48;102101.56;5017988;28;20622;-49
2023/10/06 20:45:31;;;;;;;7.40;2.65;;;;;;;22.84;56.43;102098.25;5003441;28;19921;-49
2023/10/06 20:47:57;;;;;;;8.27;2.50;;;;;;;22.81;56.63;102095.75;5003177;28;21450;-51
2023/10/06 20:50:27;;;;;;;10.52;3.00;;;;;;;22.79;56.71;102099.56;5002445;28;20080;-47
2023/10/06 20:52:54;;;;;;;8.70;2.55;;;;;;;22.78;56.71;102089.75;5001827;28;20040;-49
2023/10/06 20:55:20;;;;;;;6.72;2.60;;;;;;;22.77;56.80;102094.28;5002335;28;21563;-51
2023/10/06 20:57:46;;;;;;;8.18;2.85;;;;;;;22.77;56.54;102098.84;5002393;28;20037;-50
2023/10/06 21:00:18;;;;;;;9.38;2.75;;;;;;;22.78;56.74;102095.16;5001983;28;20037;-48
2023/10/06 21:02:43;;;;;;;;;;;;;;;22.80;56.60;102095.88;5001919;28;20280;-52
2023/10/06 21:05:11;;;;;;;10.00;2.72;;;;;;;22.76;56.83;102089.84;5002181;28;19920;-49
2023/10/06 21:07:41;;;;;;;8.13;2.80;;;;;;;22.72;56.78;102085.69;4998722;28;20642;-49
2023/10/06 21:10:07;;;;;;;8.75;3.10;;;;;;;22.75;56.94;102091.72;5001932;28;20155;-46
2023/10/06 21:12:38;;;;;;;7.97;2.63;;;;;;;22.72;56.78;102088.38;5002574;28;20061;-49
2023/10/06 21:15:08;;;;;;;8.10;2.65;;;;;;;22.71;56.67;102092.06;5001995;28;20033;-47
2023/10/06 21:17:34;;;;;;;9.10;2.75;;;;;;;22.70;56.60;102091.22;5000487;28;20025;-52
2023/10/06 21:20:00;;;;;;;9.27;3.10;;;;;;;22.70;56.78;102091.22;5002040;28;20071;-47
2023/10/06 21:22:26;;;;;;;8.93;2.75;;;;;;;22.67;57.02;102094.13;5002614;28;20766;-48
2023/10/06 21:24:54;;;;;;;9.40;2.83;;;;;;;22.66;56.89;102107.75;5001562;28;20167;-50
2023/10/06 21:27:19;;;;;;;7.97;2.75;;;;;;;22.67;56.82;102098.69;5001710;28;20363;-50
2023/10/06 21:29:46;;;;;;;6.15;2.42;;;;;;;22.64;56.86;102099.78;5000960;28;21104;-49
2023/10/06 21:32:12;;;;;;;8.35;3.00;;;;;;;22.64;56.98;102088.97;5001508;28;20060;-52
2023/10/06 21:34:37;;;;;;;7.85;2.70;;;;;;;22.62;56.99;102090.06;5002443;28;20047;-49
2023/10/06 21:37:03;;;;;;;8.13;2.67;;;;;;;22.63;56.96;102091.78;4998053;28;20033;-49
2023/10/06 21:39:29;;;;;;;8.35;2.70;;;;;;;22.60;56.70;102090.19;5002672;28;20036;-49
2023/10/06 21:41:55;;;;;;;7.70;3.10;;;;;;;22.59;56.86;102091.16;5018455;28;20492;-51
2023/10/06 21:44:20;;;;;;;7.13;2.65;;;;;;;22.58;56.77;102095.72;5001986;28;20029;-49
2023/10/06 21:46:45;;;;;;;10.27;2.70;;;;;;;22.63;56.85;102098.03;5001824;28;20041;-49
2023/10/06 21:49:13;;;;;;;6.53;2.63;;;;;;;22.62;56.80;102087.38;5002580;28;20031;-50
2023/10/06 21:51:40;;;;;;;8.43;2.90;;;;;;;22.61;56.95;102094.63;5005381;28;20060;-50
2023/10/06 21:54:06;;;;;;;8.48;2.67;;;;;;;22.59;56.69;102102.81;5005446;28;20049;-53
2023/10/06 21:56:32;;;;;;;8.02;2.78;;;;;;;22.61;56.98;102101.84;5005296;28;20041;-51
2023/10/06 21:58:57;;;;;;;7.82;2.80;;;;;;;22.58;57.26;102100.22;5006268;28;20812;-50
2023/10/06 22:01:22;;;;;;;7.47;2.83;;;;;;;22.61;57.10;102093.75;5005007;28;20564;-49
2023/10/06 22:03:50;;;;;;;8.35;2.78;;;;;;;22.57;56.96;102094.00;5004873;28;20588;-49
2023/10/06 22:06:19;;;;;;;9.50;2.72;;;;;;;22.58;57.15;102092.13;5004951;28;20440;-51
2023/10/06 22:08:49;;;;;;;7.85;2.60;;;;;;;22.57;57.00;102090.41;5004529;28;20668;-51
2023/10/06 22:11:15;;;;;;;6.82;2.78;;;;;;;22.54;57.05;102094.19;5004582;28;20033;-49
2023/10/06 22:13:42;;;;;;;6.55;2.63;;;;;;;22.55;57.37;102101.31;5004954;28;20048;-48
2023/10/06 22:16:09;;;;;;;7.38;2.58;;;;;;;22.53;57.13;102110.53;5005980;28;20045;-50
2023/10/06 22:18:36;;;;;;;8.77;2.83;;;;;;;22.50;57.58;102108.06;5004339;28;20055;-50
2023/10/06 22:21:01;;;;;;;9.13;2.80;;;;;;;22.50;57.42;102108.91;5005814;28;21886;-48
2023/10/06 22:23:27;;;;;;;9.65;2.78;;;;;;;22.50;57.43;102105.38;5004403;28;20044;-49
2023/10/06 22:25:52;;;;;;;6.93;2.90;;;;;;;22.50;57.38;102106.22;5037341;28;20623;-48
2023/10/06 22:28:19;;;;;;;8.18;2.70;;;;;;;;;;5001526;28;20064;-50
2023/10/06 22:30:45;;;;;;;7.15;2.58;;;;;;;22.52;57.43;102092.59;5005047;28;20033;-50
2023/10/06 22:33:10;;;;;;;7.45;2.97;;;;;;;22.50;57.29;102084.63;5035423;28;20032;-49
2023/10/06 22:35:36;;;;;;;7.28;2.70;;;;;;;;;;5004679;28;20098;-50
2023/10/06 22:38:01;;;;;;;11.23;3.00;;;;;;;22.52;57.32;102087.19;5004507;28;21142;-51
2023/10/06 22:40:27;;;;;;;7.22;2.72;;;;;;;22.52;57.30;102079.09;5005210;28;20328;-49
2023/10/06 22:42:54;;;;;;;5.30;2.55;;;;;;;22.50;57.30;102078.38;5020403;28;22216;-49
2023/10/06 22:45:19;;;;;;;8.00;2.53;;;;;;;22.47;57.52;102079.47;5006155;28;20751;-48
2023/10/06 22:47:49;;;;;;;8.57;2.83;;;;;;;22.47;57.37;102076.78;5004500;28;20033;-47
2023/10/06 22:50:18;;;;;;;7.75;2.92;;;;;;;22.47;57.73;102086.69;5005830;28;20405;-53
2023/10/06 22:52:46;;;;;;;8.27;2.92;;;;;;;22.45;57.73;102081.41;5005047;28;20038;-48
2023/10/06 22:55:12;;;;;;;10.80;3.10;;;;;;;22.42;57.82;102077.09;5005248;28;20076;-49
2023/10/06 22:57:38;;;;;;;9.13;2.70;;;;;;;22.43;57.77;102067.19;5004918;28;20490;-47
2023/10/06 23:00:10;;;;;;;6.78;2.60;;;;;;;22.45;57.67;102054.41;5005345;28;20528;-48
2023/10/06 23:02:37;;;;;;;7.65;2.75;;;;;;;22.43;58.06;102040.19;5005227;28;20326;-50
2023/10/06 23:05:06;;;;;;;8.18;2.85;;;;;;;22.42;57.81;102039.31;5003665;28;20037;-50
2023/10/06 23:07:34;;;;;;;8.57;2.92;;;;;;;22.42;57.96;102049.28;5035794;28;20910;-49
2023/10/06 23:10:00;;;;;;;8.45;3.78;;;;;;;22.41;57.79;102053.78;5004720;28;20851;-48
2023/10/06 23:12:29;;;;;;;6.55;2.60;;;;;;;22.41;57.91;102052.94;5004672;28;20492;-48
2023/10/06 23:14:55;;;;;;;7.20;2.60;;;;;;;22.39;58.33;102046.78;5004746;28;20570;-48
2023/10/06 23:17:23;;;;;;;7.95;3.15;;;;;;;22.41;58.10;102043.00;5004930;28;20069;-48
2023/10/06 23:19:55;;;;;;;8.20;2.80;;;;;;;22.40;58.04;102025.09;5005382;28;20423;-48
2023/10/06 23:22:23;;;;;;;10.00;3.05;;;;;;;22.40;58.15;102033.19;5005347;28;20711;-48
2023/10/06 23:24:49;;;;;;;9.85;3.20;;;;;;;22.41;57.91;102036.75;5005274;28;20171;-51
2023/10/06 23:27:22;;;;;;;7.60;2.80;;;;;;;22.42;58.06;102038.47;5004314;28;20532;-48
2023/10/06 23:29:48;;;;;;;9.50;3.33;;;;;;;22.42;58.02;102030.38;5005131;28;20135;-49
2023/10/06 23:32:14;;;;;;;7.97;3.00;;;;;;;22.40;58.06;102030.50;5004700;28;20477;-48
2023/10/06 23:34:42;;;;;;;9.60;2.88;;;;;;;22.41;58.07;102020.56;5004864;28;20189;-49
2023/10/06 23:37:16;;;;;;;7.30;3.20;;;;;;;22.43;58.26;102024.00;5004156;28;20035;-51
2023/10/06 23:39:46;;;;;;;8.50;2.97;;;;;;;22.41;58.17;102017.84;5004304;28;20045;-49
2023/10/06 23:42:14;;;;;;;7.40;2.90;;;;;;;22.40;58.15;102030.50;5005185;28;21028;-51
2023/10/06 23:44:41;;;;;;;6.55;2.78;;;;;;;22.41;58.20;102039.44;5004136;28;21019;-47
2023/10/06 23:47:10;;;;;;;8.35;2.78;;;;;;;22.41;58.37;102036.75;5004042;28;20793;-51
2023/10/06 23:49:40;;;;;;;8.55;3.15;;;;;;;22.40;58.26;102038.59;5003456;28;20029;-50
2023/10/06 23:52:12;;;;;;;6.55;2.85;;;;;;;22.39;58.50;102057.59;5004437;28;20032;-49
2023/10/06 23:54:47;;;;;;;9.95;2.90;;;;;;;22.38;58.04;102042.41;5036077;28;20132;-49
2023/10/06 23:57:16;;;;;;;6.40;2.80;;;;;;;22.39;58.27;102047.66;5004162;28;20159;-48
2023/10/06 23:59:43;;;;;;;8.55;2.90;;;;;;;22.38;58.44;102045.09;5004616;28;20464;-47
